createdAt,value
2019-03-22T00:02:22.144Z,16.30
2019-03-22T00:04:52.488Z,15.60
2019-03-22T00:07:22.805Z,18.63
2019-03-22T00:09:53.092Z,24.23
2019-03-22T00:12:23.378Z,19.83
2019-03-22T00:14:53.761Z,16.50
2019-03-22T00:17:24.077Z,22.33
2019-03-22T00:19:54.383Z,18.87
2019-03-22T00:22:25.035Z,17.00
2019-03-22T00:24:55.595Z,16.40
2019-03-22T00:27:26.167Z,15.97
2019-03-22T00:29:56.737Z,19.50
2019-03-22T00:32:27.300Z,23.27
2019-03-22T00:34:57.871Z,21.13
2019-03-22T00:37:28.180Z,16.83
2019-03-22T00:39:58.537Z,20.63
2019-03-22T00:42:28.802Z,16.57
2019-03-22T00:44:59.107Z,22.67
2019-03-22T00:47:29.460Z,16.70
2019-03-22T00:49:59.897Z,18.77
2019-03-22T00:52:30.248Z,17.20
2019-03-22T00:55:00.532Z,16.73
2019-03-22T00:57:30.818Z,17.93
2019-03-22T01:00:01.086Z,24.07
2019-03-22T01:02:31.354Z,16.93
2019-03-22T01:05:02.934Z,22.27
2019-03-22T01:07:33.364Z,17.77
2019-03-22T01:10:05.169Z,29.47
2019-03-22T01:12:35.725Z,18.13
2019-03-22T01:15:07.342Z,17.83
2019-03-22T01:17:37.704Z,21.03
2019-03-22T01:20:08.094Z,31.40
2019-03-22T01:22:38.402Z,25.23
2019-03-22T01:25:09.141Z,18.83
2019-03-22T01:27:40.753Z,19.30
2019-03-22T01:30:12.531Z,18.33
2019-03-22T01:32:42.882Z,21.80
2019-03-22T01:35:14.002Z,19.87
2019-03-22T01:37:45.454Z,28.83
2019-03-22T01:40:16.329Z,26.97
2019-03-22T01:42:46.569Z,22.77
2019-03-22T01:45:16.865Z,19.00
2019-03-22T01:47:47.111Z,20.03
2019-03-22T01:50:17.866Z,20.33
2019-03-22T01:52:48.134Z,18.67
2019-03-22T01:55:18.398Z,24.47
2019-03-22T01:57:53.656Z,25.07
2019-03-22T02:00:20.918Z,22.97
2019-03-22T02:02:51.191Z,20.37
2019-03-22T02:05:21.577Z,33.63
2019-03-22T02:07:51.886Z,26.87
2019-03-22T02:10:22.230Z,20.20
2019-03-22T02:12:52.798Z,23.23
2019-03-22T02:15:23.336Z,29.13
2019-03-22T02:17:55.123Z,20.83
2019-03-22T02:20:25.778Z,23.47
2019-03-22T02:22:56.338Z,29.93
2019-03-22T02:25:27.002Z,30.67
2019-03-22T02:28:04.064Z,25.30
2019-03-22T02:30:29.877Z,22.33
2019-03-22T02:33:00.245Z,24.53
2019-03-22T02:35:30.566Z,24.33
2019-03-22T02:38:00.924Z,23.83
2019-03-22T02:40:31.354Z,27.93
2019-03-22T02:43:01.766Z,23.17
2019-03-22T02:45:32.121Z,26.93
2019-03-22T02:48:02.474Z,29.63
2019-03-22T02:50:32.727Z,28.47
2019-03-22T02:53:03.088Z,32.77
2019-03-22T02:55:33.451Z,23.77
2019-03-22T02:58:19.360Z,24.87
2019-03-22T03:00:36.634Z,29.13
2019-03-22T03:03:06.971Z,34.63
2019-03-22T03:05:37.277Z,24.70
2019-03-22T03:08:07.605Z,26.80
2019-03-22T03:10:37.901Z,25.13
2019-03-22T03:13:08.247Z,31.43
2019-03-22T03:15:38.494Z,27.13
2019-03-22T03:18:08.845Z,26.37
2019-03-22T03:20:39.178Z,28.70
2019-03-22T03:23:09.536Z,26.47
2019-03-22T03:25:39.954Z,24.03
2019-03-22T03:28:10.271Z,28.20
2019-03-22T03:30:40.548Z,29.40
2019-03-22T03:33:10.876Z,26.67
2019-03-22T03:35:41.127Z,26.57
2019-03-22T03:38:11.488Z,33.03
2019-03-22T03:40:41.816Z,30.77
2019-03-22T03:43:13.056Z,25.83
2019-03-22T03:45:43.318Z,25.73
2019-03-22T03:48:14.073Z,26.77
2019-03-22T03:50:44.381Z,27.93
2019-03-22T03:53:14.707Z,25.63
2019-03-22T03:55:44.974Z,27.20
2019-03-22T03:58:15.368Z,24.77
2019-03-22T04:00:45.680Z,32.80
2019-03-22T04:03:16.006Z,32.57
2019-03-22T04:05:46.288Z,27.63
2019-03-22T04:08:16.693Z,25.87
2019-03-22T04:10:47.104Z,26.33
2019-03-22T04:13:17.612Z,25.13
2019-03-22T04:15:47.968Z,29.90
2019-03-22T04:18:18.222Z,25.53
2019-03-22T04:20:48.429Z,31.47
2019-03-22T04:23:18.693Z,26.27
2019-03-22T04:25:48.945Z,33.73
2019-03-22T04:28:19.593Z,26.95
2019-03-22T04:30:49.841Z,31.30
2019-03-22T04:33:20.118Z,27.10
2019-03-22T04:35:50.412Z,26.63
2019-03-22T04:38:20.788Z,26.40
2019-03-22T04:40:51.103Z,25.53
2019-03-22T04:43:21.441Z,27.70
2019-03-22T04:45:52.699Z,33.13
2019-03-22T04:48:29.140Z,32.03
2019-03-22T04:51:00.197Z,28.50
2019-03-22T04:53:33.262Z,27.60
2019-03-22T04:56:06.320Z,25.73
2019-03-22T04:58:37.564Z,28.60
2019-03-22T05:01:08.410Z,26.67
2019-03-22T05:03:39.334Z,31.23
2019-03-22T05:06:10.337Z,26.73
2019-03-22T05:08:40.913Z,31.47
2019-03-22T05:11:12.103Z,27.80
2019-03-22T05:13:43.081Z,26.67
2019-03-22T05:16:15.414Z,26.67
2019-03-22T05:18:48.068Z,31.70
2019-03-22T05:21:20.024Z,27.20
2019-03-22T05:23:51.869Z,26.23
2019-03-22T05:26:23.525Z,27.93
2019-03-22T05:28:54.076Z,29.23
2019-03-22T05:31:30.590Z,27.53
2019-03-22T05:34:00.951Z,25.60
2019-03-22T05:36:31.301Z,27.97
2019-03-22T05:39:01.554Z,27.37
2019-03-22T05:41:32.360Z,34.33
2019-03-22T05:44:02.884Z,25.67
2019-03-22T05:46:33.300Z,30.77
2019-03-22T05:49:04.484Z,26.73
2019-03-22T05:51:34.809Z,28.23
2019-03-22T05:54:05.343Z,26.77
2019-03-22T05:56:35.792Z,28.80
2019-03-22T05:59:06.070Z,30.53
2019-03-22T06:01:36.372Z,31.37
2019-03-22T06:04:06.697Z,29.13
2019-03-22T06:06:36.978Z,32.90
2019-03-22T06:09:08.175Z,26.83
2019-03-22T06:11:38.537Z,35.60
2019-03-22T06:14:08.876Z,27.50
2019-03-22T06:16:39.405Z,28.03
2019-03-22T06:19:09.746Z,30.10
2019-03-22T06:21:40.030Z,33.77
2019-03-22T06:24:10.437Z,28.23
2019-03-22T06:26:40.802Z,30.50
2019-03-22T06:29:11.084Z,28.27
2019-03-22T06:31:41.530Z,28.53
2019-03-22T06:34:11.789Z,33.30
2019-03-22T06:36:42.045Z,29.40
2019-03-22T06:39:12.340Z,27.83
2019-03-22T06:41:42.697Z,26.53
2019-03-22T06:44:13.081Z,28.07
2019-03-22T06:46:43.398Z,30.35
2019-03-22T06:49:13.644Z,30.17
2019-03-22T06:51:44.039Z,31.50
2019-03-22T06:54:14.296Z,31.63
2019-03-22T06:56:44.610Z,33.60
2019-03-22T06:59:14.943Z,32.17
2019-03-22T07:01:45.352Z,33.70
2019-03-22T07:04:15.681Z,28.47
2019-03-22T07:06:46.012Z,28.40
2019-03-22T07:09:16.261Z,28.07
2019-03-22T07:11:46.552Z,31.87
2019-03-22T07:14:16.888Z,32.73
2019-03-22T07:16:48.757Z,27.77
2019-03-22T07:19:20.487Z,28.10
2019-03-22T07:21:50.834Z,29.23
2019-03-22T07:24:21.113Z,26.73
2019-03-22T07:26:51.435Z,29.77
2019-03-22T07:29:21.787Z,28.37
2019-03-22T07:31:52.161Z,28.70
2019-03-22T07:34:22.454Z,28.63
2019-03-22T07:36:57.585Z,31.23
2019-03-22T07:39:27.984Z,27.77
2019-03-22T07:41:58.345Z,29.30
2019-03-22T07:44:28.643Z,35.60
2019-03-22T07:46:58.975Z,32.77
2019-03-22T07:49:29.284Z,32.20
2019-03-22T07:51:59.609Z,33.53
2019-03-22T07:54:29.994Z,35.17
2019-03-22T07:57:00.324Z,28.47
2019-03-22T07:59:30.718Z,29.03
2019-03-22T08:02:01.119Z,28.70
2019-03-22T08:04:32.447Z,27.83
2019-03-22T08:07:02.775Z,32.07
2019-03-22T08:09:34.731Z,36.80
2019-03-22T08:12:05.275Z,28.80
2019-03-22T08:14:35.542Z,33.60
2019-03-22T08:17:05.864Z,32.47
2019-03-22T08:19:36.179Z,33.00
2019-03-22T08:22:06.603Z,32.53
2019-03-22T08:24:36.896Z,28.13
2019-03-22T08:27:07.306Z,32.27
2019-03-22T08:29:37.640Z,34.75
2019-03-22T08:32:07.945Z,34.93
2019-03-22T08:34:38.282Z,36.67
2019-03-22T08:37:08.664Z,34.60
2019-03-22T08:39:39.033Z,34.30
2019-03-22T08:42:09.544Z,40.10
2019-03-22T08:44:39.887Z,31.63
2019-03-22T08:47:10.305Z,39.30
2019-03-22T08:49:40.661Z,32.87
2019-03-22T08:52:11.310Z,33.23
2019-03-22T08:54:41.635Z,32.47
2019-03-22T08:57:11.946Z,39.00
2019-03-22T08:59:42.327Z,34.20
2019-03-22T09:02:12.695Z,40.33
2019-03-22T09:04:43.809Z,39.73
2019-03-22T09:07:15.711Z,30.50
2019-03-22T09:09:46.123Z,33.67
2019-03-22T09:12:16.603Z,36.10
2019-03-22T09:14:48.369Z,34.20
2019-03-22T09:17:20.049Z,39.07
2019-03-22T09:19:51.274Z,31.80
2019-03-22T09:22:21.763Z,32.80
2019-03-22T09:24:52.108Z,34.63
2019-03-22T09:27:22.444Z,32.23
2019-03-22T09:29:53.897Z,34.13
2019-03-22T09:32:24.429Z,40.67
2019-03-22T09:34:54.794Z,36.57
2019-03-22T09:37:25.118Z,36.50
2019-03-22T09:39:55.432Z,39.00
2019-03-22T09:42:25.759Z,41.50
2019-03-22T09:44:56.159Z,39.37
2019-03-22T09:47:26.615Z,40.50
2019-03-22T09:49:57.066Z,33.03
2019-03-22T09:52:27.338Z,33.73
2019-03-22T09:54:57.587Z,35.73
2019-03-22T09:57:27.968Z,36.30
2019-03-22T09:59:58.361Z,36.80
2019-03-22T10:02:28.719Z,34.70
2019-03-22T10:04:59.065Z,36.00
2019-03-22T10:07:29.458Z,33.87
2019-03-22T10:09:59.915Z,33.60
2019-03-22T10:12:30.380Z,36.57
2019-03-22T10:15:00.845Z,32.97
2019-03-22T10:17:31.605Z,34.00
2019-03-22T10:20:02.004Z,35.07
2019-03-22T10:22:32.399Z,31.50
2019-03-22T10:25:04.993Z,34.40
2019-03-22T10:27:35.375Z,34.77
2019-03-22T10:30:06.118Z,36.67
2019-03-22T10:32:36.522Z,36.10
2019-03-22T10:35:07.141Z,34.43
2019-03-22T10:37:37.520Z,31.30
2019-03-22T10:40:08.304Z,34.20
2019-03-22T10:42:38.791Z,31.63
2019-03-22T10:45:09.149Z,32.30
2019-03-22T10:47:39.444Z,32.90
2019-03-22T10:50:09.888Z,34.33
2019-03-22T10:52:40.326Z,33.57
2019-03-22T10:55:23.648Z,36.30
2019-03-22T10:57:42.867Z,32.70
2019-03-22T11:00:14.859Z,34.00
2019-03-22T11:02:45.322Z,31.83
2019-03-22T11:05:15.664Z,30.37
2019-03-22T11:07:46.080Z,33.30
2019-03-22T11:10:16.430Z,32.73
2019-03-22T11:12:47.857Z,31.43
2019-03-22T11:15:18.185Z,30.47
2019-03-22T11:17:48.638Z,32.53
2019-03-22T11:20:19.015Z,29.97
2019-03-22T11:22:49.309Z,32.90
2019-03-22T11:25:19.647Z,28.77
2019-03-22T11:27:49.905Z,27.77
2019-03-22T11:30:20.287Z,27.13
2019-03-22T11:32:50.749Z,27.90
2019-03-22T11:35:21.039Z,28.53
2019-03-22T11:37:51.419Z,28.27
2019-03-22T11:40:21.836Z,28.30
2019-03-22T11:42:52.330Z,28.00
2019-03-22T11:45:24.595Z,28.10
2019-03-22T11:47:55.289Z,26.83
2019-03-22T11:50:25.677Z,29.07
2019-03-22T11:52:56.057Z,25.93
2019-03-22T11:55:26.667Z,26.10
2019-03-22T11:57:57.040Z,25.50
2019-03-22T12:00:27.954Z,26.27
2019-03-22T12:02:58.460Z,26.47
2019-03-22T12:05:28.887Z,24.23
2019-03-22T12:08:00.834Z,26.03
2019-03-22T12:10:33.357Z,24.03
2019-03-22T12:13:04.870Z,26.43
2019-03-22T12:15:35.184Z,24.80
2019-03-22T12:18:07.650Z,27.47
2019-03-22T12:20:38.114Z,24.90
2019-03-22T12:23:08.856Z,24.17
2019-03-22T12:25:39.329Z,25.17
2019-03-22T12:28:09.637Z,23.70
2019-03-22T12:30:40.260Z,23.20
2019-03-22T12:33:10.646Z,22.87
2019-03-22T12:35:42.614Z,21.13
2019-03-22T12:38:13.727Z,22.10
2019-03-22T12:40:44.036Z,20.57
2019-03-22T12:43:14.503Z,20.90
2019-03-22T12:45:44.792Z,20.43
2019-03-22T12:48:15.074Z,21.63
2019-03-22T12:50:45.313Z,20.67
2019-03-22T12:53:15.588Z,21.10
2019-03-22T12:55:45.841Z,20.13
2019-03-22T12:58:16.204Z,19.13
2019-03-22T13:00:46.556Z,19.07
2019-03-22T13:03:16.808Z,20.23
2019-03-22T13:05:47.104Z,20.00
2019-03-22T13:08:17.478Z,18.97
2019-03-22T13:10:48.024Z,18.63
2019-03-22T13:13:18.371Z,20.40
2019-03-22T13:15:48.683Z,19.23
2019-03-22T13:18:18.968Z,18.80
2019-03-22T13:20:51.083Z,18.43
2019-03-22T13:23:21.276Z,19.23
2019-03-22T13:25:51.556Z,19.20
2019-03-22T13:28:21.898Z,17.33
2019-03-22T13:30:52.224Z,18.37
2019-03-22T13:33:22.709Z,18.67
2019-03-22T13:35:53.079Z,18.20
2019-03-22T13:38:23.422Z,18.37
2019-03-22T13:40:53.713Z,17.30
2019-03-22T13:43:24.019Z,17.13
2019-03-22T13:45:54.348Z,18.03
2019-03-22T13:48:24.697Z,16.97
2019-03-22T13:50:55.048Z,17.63
2019-03-22T13:53:25.336Z,16.87
2019-03-22T13:55:55.621Z,16.43
2019-03-22T13:58:26.328Z,16.63
2019-03-22T14:00:56.780Z,16.00
2019-03-22T14:03:27.240Z,15.23
2019-03-22T14:05:57.683Z,16.17
2019-03-22T14:08:27.991Z,15.60
2019-03-22T14:10:58.335Z,15.27
2019-03-22T14:13:28.705Z,15.30
2019-03-22T14:15:59.030Z,14.50
2019-03-22T14:18:29.441Z,15.40
2019-03-22T14:20:59.787Z,13.90
2019-03-22T14:23:30.135Z,14.17
2019-03-22T14:26:00.877Z,13.90
2019-03-22T14:28:31.302Z,14.07
2019-03-22T14:31:01.678Z,14.30
2019-03-22T14:33:32.116Z,13.27
2019-03-22T14:36:02.526Z,13.70
2019-03-22T14:38:33.186Z,13.17
2019-03-22T14:41:03.813Z,13.93
2019-03-22T14:43:34.214Z,12.77
2019-03-22T14:46:04.650Z,12.83
2019-03-22T14:48:35.103Z,12.57
2019-03-22T14:51:05.662Z,12.53
2019-03-22T14:53:35.936Z,10.30
2019-03-22T14:56:06.265Z,11.30
2019-03-22T14:58:36.870Z,11.13
2019-03-22T15:01:07.278Z,11.17
2019-03-22T15:03:37.606Z,11.30
2019-03-22T15:06:08.978Z,11.47
2019-03-22T15:08:39.275Z,10.63
2019-03-22T15:11:09.741Z,10.20
2019-03-22T15:13:46.005Z,10.13
2019-03-22T15:16:34.686Z,9.93
2019-03-22T15:19:22.786Z,10.00
2019-03-22T15:22:11.096Z,9.63
2019-03-22T15:25:00.624Z,9.13
2019-03-22T15:27:45.865Z,9.30
2019-03-22T15:30:31.569Z,8.57
2019-03-22T15:33:16.945Z,11.00
2019-03-22T15:35:57.268Z,10.37
2019-03-22T15:38:49.873Z,9.00
2019-03-22T15:41:20.361Z,9.00
2019-03-22T15:43:50.725Z,8.33
2019-03-22T15:46:21.071Z,8.07
2019-03-22T15:48:51.335Z,7.70
2019-03-22T15:51:21.633Z,8.50
2019-03-22T15:53:51.887Z,7.10
2019-03-22T15:56:22.393Z,8.77
2019-03-22T15:58:52.640Z,9.20
2019-03-22T16:01:23.530Z,8.83
2019-03-22T16:03:53.927Z,8.20
2019-03-22T16:06:24.577Z,6.57
2019-03-22T16:08:56.643Z,9.27
2019-03-22T16:11:30.486Z,8.27
2019-03-22T16:14:02.676Z,7.23
2019-03-22T16:16:33.064Z,7.43
2019-03-22T16:19:04.176Z,7.30
2019-03-22T16:21:34.555Z,7.33
2019-03-22T16:24:04.860Z,9.17
2019-03-22T16:26:35.195Z,8.07
2019-03-22T16:29:20.040Z,7.70
2019-03-22T16:31:47.418Z,8.97
2019-03-22T16:34:17.755Z,7.43
2019-03-22T16:36:48.419Z,7.10
2019-03-22T16:39:18.769Z,9.50
2019-03-22T16:41:49.368Z,7.00
2019-03-22T16:44:19.622Z,6.97
2019-03-22T16:46:49.963Z,6.53
2019-03-22T16:49:20.389Z,7.30
2019-03-22T16:51:50.867Z,6.57
2019-03-22T16:54:21.188Z,6.33
2019-03-22T16:56:51.442Z,5.93
2019-03-22T16:59:21.696Z,6.83
2019-03-22T17:01:52.160Z,6.30
2019-03-22T17:04:22.860Z,5.53
2019-03-22T17:06:54.226Z,6.33
2019-03-22T17:09:27.280Z,7.37
2019-03-22T17:11:57.773Z,5.87
2019-03-22T17:14:28.247Z,5.90
2019-03-22T17:16:58.593Z,5.97
2019-03-22T17:19:28.888Z,5.63
2019-03-22T17:21:59.161Z,5.13
2019-03-22T17:24:29.521Z,5.73
2019-03-22T17:26:59.817Z,6.20
2019-03-22T17:29:31.196Z,5.87
2019-03-22T17:32:02.720Z,5.40
2019-03-22T17:34:33.155Z,5.53
2019-03-22T17:37:04.296Z,5.23
2019-03-22T17:39:34.646Z,5.40
2019-03-22T17:42:05.052Z,5.10
2019-03-22T17:44:35.418Z,5.30
2019-03-22T17:47:05.845Z,5.70
2019-03-22T17:49:36.273Z,5.33
2019-03-22T17:52:06.784Z,5.47
2019-03-22T17:54:37.256Z,5.60
2019-03-22T17:57:07.636Z,5.50
2019-03-22T17:59:38.143Z,5.37
2019-03-22T18:02:08.558Z,6.00
2019-03-22T18:04:38.954Z,5.90
2019-03-22T18:07:09.260Z,5.53
2019-03-22T18:09:39.554Z,5.67
2019-03-22T18:12:10.864Z,5.70
2019-03-22T18:14:41.169Z,5.80
2019-03-22T18:17:11.456Z,5.77
2019-03-22T18:19:41.827Z,5.90
2019-03-22T18:22:12.193Z,5.80
2019-03-22T18:24:44.254Z,5.60
2019-03-22T18:27:14.650Z,6.37
2019-03-22T18:29:44.980Z,6.20
2019-03-22T18:32:15.270Z,7.13
2019-03-22T18:34:45.569Z,6.77
2019-03-22T18:37:15.977Z,6.80
2019-03-22T18:39:46.301Z,6.83
2019-03-22T18:42:16.589Z,7.07
2019-03-22T18:44:46.977Z,6.43
2019-03-22T18:47:17.475Z,6.83
2019-03-22T18:49:47.890Z,6.90
2019-03-22T18:52:18.154Z,7.47
2019-03-22T18:54:48.382Z,7.33
2019-03-22T18:57:18.654Z,7.47
2019-03-22T18:59:48.912Z,7.27
2019-03-22T19:02:19.188Z,7.50
2019-03-22T19:04:49.517Z,6.87
2019-03-22T19:07:19.846Z,7.57
2019-03-22T19:09:50.234Z,7.47
2019-03-22T19:12:20.596Z,7.20
2019-03-22T19:14:51.718Z,9.20
2019-03-22T19:17:29.404Z,7.03
2019-03-22T19:19:59.992Z,7.63
2019-03-22T19:22:30.383Z,6.80
2019-03-22T19:25:00.715Z,7.10
2019-03-22T19:27:31.017Z,7.53
2019-03-22T19:30:01.429Z,7.67
2019-03-22T19:32:31.977Z,7.43
2019-03-22T19:35:02.413Z,6.87
2019-03-22T19:37:32.895Z,7.07
2019-03-22T19:40:09.867Z,7.70
2019-03-22T19:42:40.508Z,8.20
2019-03-22T19:45:11.042Z,7.33
2019-03-22T19:47:41.337Z,7.90
2019-03-22T19:50:11.808Z,8.17
2019-03-22T19:52:43.036Z,7.87
2019-03-22T19:55:14.665Z,8.47
2019-03-22T19:57:45.110Z,8.07
2019-03-22T20:00:15.542Z,8.27
2019-03-22T20:02:46.044Z,7.37
2019-03-22T20:05:21.506Z,8.63
2019-03-22T20:07:51.778Z,7.93
2019-03-22T20:10:22.121Z,8.53
2019-03-22T20:12:52.459Z,8.57
2019-03-22T20:15:22.818Z,8.20
2019-03-22T20:17:53.091Z,8.83
2019-03-22T20:20:23.424Z,8.03
2019-03-22T20:22:53.939Z,8.87
2019-03-22T20:25:24.286Z,8.23
2019-03-22T20:27:55.575Z,8.97
2019-03-22T20:30:25.955Z,8.77
2019-03-22T20:32:56.305Z,8.77
2019-03-22T20:35:26.763Z,8.67
2019-03-22T20:37:57.163Z,8.60
2019-03-22T20:40:27.581Z,8.60
2019-03-22T20:42:57.905Z,8.87
2019-03-22T20:45:28.147Z,9.00
2019-03-22T20:47:59.552Z,8.63
2019-03-22T20:50:35.746Z,8.53
2019-03-22T20:53:02.116Z,8.80
2019-03-22T20:55:32.845Z,9.07
2019-03-22T20:58:03.146Z,8.87
2019-03-22T21:00:33.502Z,9.40
2019-03-22T21:03:04.694Z,9.23
2019-03-22T21:05:35.099Z,9.50
2019-03-22T21:08:05.637Z,9.17
2019-03-22T21:10:35.969Z,8.97
2019-03-22T21:13:06.246Z,8.57
2019-03-22T21:15:36.591Z,9.53
2019-03-22T21:18:06.959Z,8.97
2019-03-22T21:20:37.278Z,8.83
2019-03-22T21:23:07.839Z,9.33
2019-03-22T21:25:38.184Z,9.17
2019-03-22T21:28:08.489Z,8.23
2019-03-22T21:30:38.866Z,8.80
2019-03-22T21:33:09.276Z,8.90
2019-03-22T21:35:39.568Z,9.67
2019-03-22T21:38:11.147Z,9.67
2019-03-22T21:40:42.203Z,9.23
2019-03-22T21:43:12.555Z,10.07
2019-03-22T21:45:42.911Z,9.53
2019-03-22T21:48:13.298Z,10.40
2019-03-22T21:50:43.667Z,9.90
2019-03-22T21:53:13.936Z,9.87
2019-03-22T21:55:44.259Z,10.27
2019-03-22T21:58:15.591Z,10.27
2019-03-22T22:00:45.954Z,9.83
2019-03-22T22:03:16.346Z,10.70
2019-03-22T22:05:48.108Z,12.13
2019-03-22T22:08:18.698Z,14.63
2019-03-22T22:10:59.318Z,11.23
2019-03-22T22:13:21.363Z,18.80
2019-03-22T22:15:51.645Z,13.13
2019-03-22T22:18:21.973Z,18.23
2019-03-22T22:20:52.267Z,15.97
2019-03-22T22:23:22.681Z,19.90
2019-03-22T22:25:52.986Z,24.03
2019-03-22T22:28:23.580Z,26.60
2019-03-22T22:30:54.075Z,25.30
2019-03-22T22:33:24.371Z,24.53
2019-03-22T22:35:59.013Z,18.73
2019-03-22T22:38:26.671Z,26.80
2019-03-22T22:40:57.095Z,27.23
2019-03-22T22:43:27.534Z,20.77
2019-03-22T22:45:57.865Z,22.90
2019-03-22T22:48:28.305Z,21.17
2019-03-22T22:50:58.727Z,22.43
2019-03-22T22:53:29.092Z,22.50
2019-03-22T22:55:59.396Z,21.77
2019-03-22T22:58:29.806Z,21.23
2019-03-22T23:01:00.261Z,21.03
2019-03-22T23:03:31.929Z,22.05
2019-03-22T23:06:09.399Z,21.27
2019-03-22T23:08:35.400Z,22.77
2019-03-22T23:11:05.879Z,22.30
2019-03-22T23:13:37.945Z,23.07
2019-03-22T23:16:08.307Z,25.13
2019-03-22T23:18:38.612Z,22.23
2019-03-22T23:21:08.957Z,22.90
2019-03-22T23:23:40.218Z,24.83
2019-03-22T23:26:10.696Z,23.47
2019-03-22T23:28:41.093Z,22.37
2019-03-22T23:31:11.653Z,22.00
2019-03-22T23:33:42.131Z,24.03
2019-03-22T23:36:20.125Z,22.03
2019-03-22T23:38:44.676Z,29.30
2019-03-22T23:41:15.104Z,23.63
2019-03-22T23:43:45.426Z,23.70
2019-03-22T23:46:15.715Z,27.00
2019-03-22T23:48:45.992Z,27.47
2019-03-22T23:51:16.347Z,24.02
2019-03-22T23:53:46.638Z,31.83
2019-03-22T23:56:17.010Z,30.10
2019-03-22T23:58:47.312Z,28.60
